sensor_id;sensor_type;location;lat;lon;timestamp;pressure;altitude;pressure_sealevel;temperature;humidity
50933;BME280;36921;49.006;9.292;2023-01-28T00:01:36;99407.59;;;0.31;100.00
50933;BME280;36921;49.006;9.292;2023-01-28T00:04:02;99412.91;;;0.31;100.00
50933;BME280;36921;49.006;9.292;2023-01-28T00:06:28;99405.91;;;0.30;100.00
50933;BME280;36921;49.006;9.292;2023-01-28T00:08:53;99406.75;;;0.30;100.00
50933;BME280;36921;49.006;9.292;2023-01-28T00:11:20;99403.97;;;0.32;100.00
50933;BME280;36921;49.006;9.292;2023-01-28T00:13:50;99413.41;;;0.36;100.00
50933;BME280;36921;49.006;9.292;2023-01-28T00:16:16;99418.34;;;0.40;100.00
50933;BME280;36921;49.006;9.292;2023-01-28T00:18:41;99421.63;;;0.33;100.00
50933;BME280;36921;49.006;9.292;2023-01-28T00:21:10;99417.16;;;0.33;100.00
50933;BME280;36921;49.006;9.292;2023-01-28T00:23:38;99392.13;;;0.25;100.00
50933;BME280;36921;49.006;9.292;2023-01-28T00:26:06;99403.97;;;0.32;100.00
50933;BME280;36921;49.006;9.292;2023-01-28T00:28:31;99409.06;;;0.35;100.00
50933;BME280;36921;49.006;9.292;2023-01-28T00:31:07;99403.97;;;0.32;100.00
50933;BME280;36921;49.006;9.292;2023-01-28T00:33:34;99394.66;;;0.26;100.00
50933;BME280;36921;49.006;9.292;2023-01-28T00:36:00;99404.81;;;0.32;100.00
50933;BME280;36921;49.006;9.292;2023-01-28T00:38:27;99401.06;;;0.35;100.00
50933;BME280;36921;49.006;9.292;2023-01-28T00:40:52;99394.75;;;0.36;100.00
50933;BME280;36921;49.006;9.292;2023-01-28T00:43:19;99395.03;;;0.33;100.00
50933;BME280;36921;49.006;9.292;2023-01-28T00:45:45;99395.75;;;0.35;100.00
50933;BME280;36921;49.006;9.292;2023-01-28T00:48:10;99400.09;;;0.36;100.00
50933;BME280;36921;49.006;9.292;2023-01-28T00:50:36;99403.59;;;0.36;100.00
50933;BME280;36921;49.006;9.292;2023-01-28T00:53:03;99398.25;;;0.36;100.00
50933;BME280;36921;49.006;9.292;2023-01-28T00:55:29;99392.72;;;0.39;100.00
50933;BME280;36921;49.006;9.292;2023-01-28T00:57:54;99397.16;;;0.39;100.00
50933;BME280;36921;49.006;9.292;2023-01-28T01:00:20;99399.63;;;0.42;100.00
50933;BME280;36921;49.006;9.292;2023-01-28T01:03:15;99389.81;;;0.42;100.00
50933;BME280;36921;49.006;9.292;2023-01-28T01:05:40;99393.81;;;0.37;100.00
50933;BME280;36921;49.006;9.292;2023-01-28T01:08:05;99394.66;;;0.37;100.00
50933;BME280;36921;49.006;9.292;2023-01-28T01:10:31;99393.09;;;0.35;100.00
50933;BME280;36921;49.006;9.292;2023-01-28T01:12:56;99379.16;;;0.31;100.00
50933;BME280;36921;49.006;9.292;2023-01-28T01:15:23;99400.94;;;0.36;100.00
50933;BME280;36921;49.006;9.292;2023-01-28T01:17:49;99402.75;;;0.36;100.00
50933;BME280;36921;49.006;9.292;2023-01-28T01:20:18;99411.09;;;0.42;100.00
50933;BME280;36921;49.006;9.292;2023-01-28T01:22:44;99410.13;;;0.43;100.00
50933;BME280;36921;49.006;9.292;2023-01-28T01:25:10;99405.41;;;0.36;100.00
50933;BME280;36921;49.006;9.292;2023-01-28T01:27:36;99406.50;;;0.33;100.00
50933;BME280;36921;49.006;9.292;2023-01-28T01:30:02;99409.53;;;0.29;100.00
50933;BME280;36921;49.006;9.292;2023-01-28T01:32:29;99407.59;;;0.31;100.00
50933;BME280;36921;49.006;9.292;2023-01-28T01:34:55;99414.00;;;0.28;100.00
50933;BME280;36921;49.006;9.292;2023-01-28T01:37:20;99406.16;;;0.27;100.00
50933;BME280;36921;49.006;9.292;2023-01-28T01:39:46;99405.53;;;0.23;100.00
50933;BME280;36921;49.006;9.292;2023-01-28T01:42:12;99417.03;;;0.24;100.00
50933;BME280;36921;49.006;9.292;2023-01-28T01:45:04;99412.31;;;0.27;100.00
50933;BME280;36921;49.006;9.292;2023-01-28T01:52:45;99410.88;;;0.23;100.00
50933;BME280;36921;49.006;9.292;2023-01-28T01:55:16;99412.31;;;0.27;100.00
50933;BME280;36921;49.006;9.292;2023-01-28T01:57:43;99412.31;;;0.27;100.00
50933;BME280;36921;49.006;9.292;2023-01-28T02:00:10;99415.59;;;0.31;100.00
50933;BME280;36921;49.006;9.292;2023-01-28T02:02:39;99416.66;;;0.28;100.00
50933;BME280;36921;49.006;9.292;2023-01-28T02:05:06;99415.72;;;0.29;100.00
50933;BME280;36921;49.006;9.292;2023-01-28T02:07:32;99416.56;;;0.30;100.00
50933;BME280;36921;49.006;9.292;2023-01-28T02:09:57;99420.78;;;0.32;100.00
50933;BME280;36921;49.006;9.292;2023-01-28T02:12:28;99413.91;;;0.30;100.00
50933;BME280;36921;49.006;9.292;2023-01-28T02:15:07;99412.66;;;0.34;100.00
50933;BME280;36921;49.006;9.292;2023-01-28T02:17:34;99415.84;;;0.28;100.00
50933;BME280;36921;49.006;9.292;2023-01-28T02:20:08;99415.09;;;0.26;100.00
50933;BME280;36921;49.006;9.292;2023-01-28T02:30:39;99421.88;;;0.30;100.00
50933;BME280;36921;49.006;9.292;2023-01-28T02:33:15;99417.75;;;0.26;100.00
50933;BME280;36921;49.006;9.292;2023-01-28T02:35:52;99434.34;;;0.29;100.00
50933;BME280;36921;49.006;9.292;2023-01-28T02:38:31;99425.28;;;0.32;100.00
50933;BME280;36921;49.006;9.292;2023-01-28T02:41:10;99429.03;;;0.29;100.00
50933;BME280;36921;49.006;9.292;2023-01-28T02:43:40;99426.38;;;0.29;100.00
50933;BME280;36921;49.006;9.292;2023-01-28T02:49:17;99424.53;;;0.30;100.00
50933;BME280;36921;49.006;9.292;2023-01-28T03:00:25;99437.09;;;0.39;100.00
50933;BME280;36921;49.006;9.292;2023-01-28T03:05:34;99435.75;;;0.44;100.00
50933;BME280;36921;49.006;9.292;2023-01-28T03:08:02;99437.56;;;0.44;100.00
50933;BME280;36921;49.006;9.292;2023-01-28T03:10:49;99439.16;;;0.47;100.00
50933;BME280;36921;49.006;9.292;2023-01-28T03:13:34;99430.31;;;0.46;100.00
50933;BME280;36921;49.006;9.292;2023-01-28T03:16:19;99441.69;;;0.48;100.00
50933;BME280;36921;49.006;9.292;2023-01-28T03:19:03;99440.00;;;0.47;100.00
50933;BME280;36921;49.006;9.292;2023-01-28T03:21:48;99438.91;;;0.50;100.00
50933;BME280;36921;49.006;9.292;2023-01-28T03:24:34;99436.38;;;0.48;100.00
50933;BME280;36921;49.006;9.292;2023-01-28T03:27:31;99435.53;;;0.48;100.00
50933;BME280;36921;49.006;9.292;2023-01-28T03:30:24;99432.72;;;0.49;100.00
50933;BME280;36921;49.006;9.292;2023-01-28T03:33:11;99436.97;;;0.52;100.00
50933;BME280;36921;49.006;9.292;2023-01-28T03:35:55;99447.03;;;0.48;100.00
50933;BME280;36921;49.006;9.292;2023-01-28T03:38:40;99445.19;;;0.49;100.00
50933;BME280;36921;49.006;9.292;2023-01-28T03:41:09;99439.03;;;0.48;100.00
50933;BME280;36921;49.006;9.292;2023-01-28T03:43:35;99439.88;;;0.49;100.00
50933;BME280;36921;49.006;9.292;2023-01-28T03:46:02;99456.44;;;0.52;100.00
50933;BME280;36921;49.006;9.292;2023-01-28T03:48:28;99447.88;;;0.49;100.00
50933;BME280;36921;49.006;9.292;2023-01-28T03:50:55;99442.28;;;0.52;100.00
50933;BME280;36921;49.006;9.292;2023-01-28T03:53:21;99450.16;;;0.53;100.00
50933;BME280;36921;49.006;9.292;2023-01-28T03:55:48;99451.84;;;0.54;100.00
50933;BME280;36921;49.006;9.292;2023-01-28T03:58:15;99449.91;;;0.56;100.00
50933;BME280;36921;49.006;9.292;2023-01-28T04:00:41;99447.34;;;0.55;100.00
50933;BME280;36921;49.006;9.292;2023-01-28T04:03:13;99452.56;;;0.56;100.00
50933;BME280;36921;49.006;9.292;2023-01-28T04:05:47;99453.31;;;0.58;100.00
50933;BME280;36921;49.006;9.292;2023-01-28T04:08:21;99457.66;;;0.59;100.00
50933;BME280;36921;49.006;9.292;2023-01-28T04:10:47;99459.56;;;0.57;100.00
50933;BME280;36921;49.006;9.292;2023-01-28T04:13:12;99454.25;;;0.57;100.00
50933;BME280;36921;49.006;9.292;2023-01-28T04:15:38;99453.56;;;0.55;100.00
50933;BME280;36921;49.006;9.292;2023-01-28T04:18:03;99459.22;;;0.62;100.00
50933;BME280;36921;49.006;9.292;2023-01-28T04:20:29;99477.00;;;0.61;100.00
50933;BME280;36921;49.006;9.292;2023-01-28T04:22:54;99466.38;;;0.61;100.00
50933;BME280;36921;49.006;9.292;2023-01-28T04:25:19;99464.78;;;0.59;100.00
50933;BME280;36921;49.006;9.292;2023-01-28T04:27:45;99472.19;;;0.55;100.00
50933;BME280;36921;49.006;9.292;2023-01-28T04:30:10;99474.72;;;0.57;100.00
50933;BME280;36921;49.006;9.292;2023-01-28T04:32:36;99477.25;;;0.70;100.00
50933;BME280;36921;49.006;9.292;2023-01-28T04:35:02;99477.00;;;0.61;100.00
50933;BME280;36921;49.006;9.292;2023-01-28T04:37:27;99479.69;;;0.61;100.00
50933;BME280;36921;49.006;9.292;2023-01-28T04:39:52;99485.72;;;0.52;100.00
50933;BME280;36921;49.006;9.292;2023-01-28T04:42:18;99482.13;;;0.53;100.00
50933;BME280;36921;49.006;9.292;2023-01-28T04:44:43;99485.03;;;0.50;100.00
50933;BME280;36921;49.006;9.292;2023-01-28T04:47:09;99487.19;;;0.56;100.00
50933;BME280;36921;49.006;9.292;2023-01-28T04:49:35;99487.44;;;0.53;100.00
50933;BME280;36921;49.006;9.292;2023-01-28T04:52:00;99486.72;;;0.51;100.00
50933;BME280;36921;49.006;9.292;2023-01-28T04:54:26;99496.75;;;0.48;100.00
50933;BME280;36921;49.006;9.292;2023-01-28T04:56:51;99491.78;;;0.43;100.00
50933;BME280;36921;49.006;9.292;2023-01-28T04:59:17;99493.72;;;0.41;100.00
50933;BME280;36921;49.006;9.292;2023-01-28T05:01:44;99498.56;;;0.47;100.00
50933;BME280;36921;49.006;9.292;2023-01-28T05:04:09;99500.25;;;0.48;100.00
50933;BME280;36921;49.006;9.292;2023-01-28T05:06:35;99498.81;;;0.44;100.00
50933;BME280;36921;49.006;9.292;2023-01-28T05:09:00;99496.88;;;0.46;100.00
50933;BME280;36921;49.006;9.292;2023-01-28T05:11:25;99495.66;;;0.50;100.00
50933;BME280;36921;49.006;9.292;2023-01-28T05:13:53;99501.22;;;0.47;100.00
50933;BME280;36921;49.006;9.292;2023-01-28T05:16:18;99497.13;;;0.43;100.00
50933;BME280;36921;49.006;9.292;2023-01-28T05:18:44;99501.94;;;0.49;100.00
50933;BME280;36921;49.006;9.292;2023-01-28T05:21:12;99508.84;;;0.40;100.00
50933;BME280;36921;49.006;9.292;2023-01-28T05:23:38;99505.22;;;0.41;100.00
50933;BME280;36921;49.006;9.292;2023-01-28T05:26:03;99505.34;;;0.40;100.00
50933;BME280;36921;49.006;9.292;2023-01-28T05:28:29;99510.53;;;0.41;100.00
50933;BME280;36921;49.006;9.292;2023-01-28T05:30:54;99511.28;;;0.43;100.00
50933;BME280;36921;49.006;9.292;2023-01-28T05:33:20;99515.75;;;0.43;100.00
50933;BME280;36921;49.006;9.292;2023-01-28T05:35:46;99519.25;;;0.43;100.00
50933;BME280;36921;49.006;9.292;2023-01-28T05:38:13;99520.94;;;0.44;100.00
50933;BME280;36921;49.006;9.292;2023-01-28T05:40:39;99524.72;;;0.42;100.00
50933;BME280;36921;49.006;9.292;2023-01-28T05:43:04;99525.19;;;0.36;100.00
50933;BME280;36921;49.006;9.292;2023-01-28T05:45:30;99517.19;;;0.36;100.00
50933;BME280;36921;49.006;9.292;2023-01-28T05:47:55;99520.94;;;0.33;100.00
50933;BME280;36921;49.006;9.292;2023-01-28T05:50:23;99514.69;;;0.34;100.00
50933;BME280;36921;49.006;9.292;2023-01-28T05:52:48;99518.63;;;0.29;100.00
50933;BME280;36921;49.006;9.292;2023-01-28T05:55:14;99521.53;;;0.26;100.00
50933;BME280;36921;49.006;9.292;2023-01-28T05:57:39;99519.88;;;0.25;100.00
50933;BME280;36921;49.006;9.292;2023-01-28T06:00:05;99516.97;;;0.28;100.00
50933;BME280;36921;49.006;9.292;2023-01-28T06:02:32;99521.31;;;0.29;100.00
50933;BME280;36921;49.006;9.292;2023-01-28T06:04:58;99532.44;;;0.34;100.00
50933;BME280;36921;49.006;9.292;2023-01-28T06:07:23;99534.16;;;0.35;100.00
50933;BME280;36921;49.006;9.292;2023-01-28T06:09:49;99529.78;;;0.34;100.00
50933;BME280;36921;49.006;9.292;2023-01-28T06:12:14;99538.97;;;0.30;100.00
50933;BME280;36921;49.006;9.292;2023-01-28T06:14:40;99544.31;;;0.30;100.00
50933;BME280;36921;49.006;9.292;2023-01-28T06:17:07;99545.41;;;0.27;100.00
50933;BME280;36921;49.006;9.292;2023-01-28T06:19:32;99544.56;;;0.27;100.00
50933;BME280;36921;49.006;9.292;2023-01-28T06:21:58;99554.31;;;0.26;100.00
50933;BME280;36921;49.006;9.292;2023-01-28T06:24:23;99562.19;;;0.28;100.00
50933;BME280;36921;49.006;9.292;2023-01-28T06:26:48;99563.88;;;0.29;100.00
50933;BME280;36921;49.006;9.292;2023-01-28T06:29:14;99560.28;;;0.30;100.00
50933;BME280;36921;49.006;9.292;2023-01-28T06:31:39;99562.94;;;0.30;100.00
50933;BME280;36921;49.006;9.292;2023-01-28T06:34:05;99569.69;;;0.34;100.00
50933;BME280;36921;49.006;9.292;2023-01-28T06:36:30;99570.69;;;0.33;100.00
50933;BME280;36921;49.006;9.292;2023-01-28T06:38:56;99573.34;;;0.33;100.00
50933;BME280;36921;49.006;9.292;2023-01-28T06:41:28;99463.06;;;-0.32;100.00
50933;BME280;36921;49.006;9.292;2023-01-28T06:47:25;99505.19;;;-0.15;100.00
50933;BME280;36921;49.006;9.292;2023-01-28T06:49:51;99558.31;;;0.09;100.00
50933;BME280;36921;49.006;9.292;2023-01-28T06:52:16;99577.66;;;0.22;100.00
50933;BME280;36921;49.006;9.292;2023-01-28T06:54:41;99564.97;;;0.15;100.00
50933;BME280;36921;49.006;9.292;2023-01-28T06:57:07;99565.19;;;0.12;100.00
50933;BME280;36921;49.006;9.292;2023-01-28T06:59:32;99588.81;;;0.28;100.00
50933;BME280;36921;49.006;9.292;2023-01-28T07:01:57;99576.22;;;0.18;100.00
50933;BME280;36921;49.006;9.292;2023-01-28T07:04:23;99583.72;;;0.25;100.00
50933;BME280;36921;49.006;9.292;2023-01-28T07:06:48;99580.56;;;0.19;100.00
50933;BME280;36921;49.006;9.292;2023-01-28T07:09:13;99584.47;;;0.27;100.00
50933;BME280;36921;49.006;9.292;2023-01-28T07:11:38;99595.22;;;0.25;100.00
50933;BME280;36921;49.006;9.292;2023-01-28T07:14:04;99586.25;;;0.15;100.00
50933;BME280;36921;49.006;9.292;2023-01-28T07:16:30;99603.09;;;0.27;100.00
50933;BME280;36921;49.006;9.292;2023-01-28T07:18:55;99596.91;;;0.26;100.00
50933;BME280;36921;49.006;9.292;2023-01-28T07:21:20;99598.75;;;0.37;100.00
50933;BME280;36921;49.006;9.292;2023-01-28T07:23:46;99589.56;;;0.30;100.00
50933;BME280;36921;49.006;9.292;2023-01-28T07:26:11;99602.88;;;0.41;100.00
50933;BME280;36921;49.006;9.292;2023-01-28T07:28:36;99595.63;;;0.43;100.00
50933;BME280;36921;49.006;9.292;2023-01-28T07:31:02;99599.13;;;0.43;100.00
50933;BME280;36921;49.006;9.292;2023-01-28T07:33:27;99604.81;;;0.50;100.00
50933;BME280;36921;49.006;9.292;2023-01-28T07:35:52;99612.22;;;0.58;100.00
50933;BME280;36921;49.006;9.292;2023-01-28T07:38:18;99604.34;;;0.56;100.00
50933;BME280;36921;49.006;9.292;2023-01-28T07:40:43;99613.16;;;0.68;100.00
50933;BME280;36921;49.006;9.292;2023-01-28T07:43:09;99592.72;;;0.69;100.00
50933;BME280;36921;49.006;9.292;2023-01-28T07:45:34;99607.25;;;0.76;100.00
50933;BME280;36921;49.006;9.292;2023-01-28T07:48:02;99614.03;;;0.91;100.00
50933;BME280;36921;49.006;9.292;2023-01-28T07:50:30;99608.69;;;0.91;100.00
50933;BME280;36921;49.006;9.292;2023-01-28T07:52:57;99610.50;;;0.91;100.00
50933;BME280;36921;49.006;9.292;2023-01-28T07:55:23;99608.44;;;0.94;100.00
50933;BME280;36921;49.006;9.292;2023-01-28T07:57:56;99619.38;;;1.02;100.00
50933;BME280;36921;49.006;9.292;2023-01-28T08:00:23;99620.19;;;1.03;100.00
50933;BME280;36921;49.006;9.292;2023-01-28T08:02:49;99605.41;;;0.99;100.00
50933;BME280;36921;49.006;9.292;2023-01-28T08:05:19;99607.72;;;1.03;100.00
50933;BME280;36921;49.006;9.292;2023-01-28T08:07:45;99622.75;;;1.16;100.00
50933;BME280;36921;49.006;9.292;2023-01-28T08:10:11;99606.97;;;1.13;100.00
50933;BME280;36921;49.006;9.292;2023-01-28T08:12:37;99606.34;;;1.31;100.00
50933;BME280;36921;49.006;9.292;2023-01-28T08:18:04;99625.81;;;1.43;100.00
50933;BME280;36921;49.006;9.292;2023-01-28T08:20:30;99631.63;;;1.48;100.00
50933;BME280;36921;49.006;9.292;2023-01-28T08:23:06;99633.16;;;1.62;100.00
50933;BME280;36921;49.006;9.292;2023-01-28T08:25:36;99628.53;;;1.64;100.00
50933;BME280;36921;49.006;9.292;2023-01-28T08:28:01;99637.50;;;1.74;100.00
50933;BME280;36921;49.006;9.292;2023-01-28T08:30:27;99630.06;;;1.78;100.00
50933;BME280;36921;49.006;9.292;2023-01-28T08:32:55;99623.06;;;1.77;100.00
50933;BME280;36921;49.006;9.292;2023-01-28T08:35:25;99634.47;;;2.00;100.00
50933;BME280;36921;49.006;9.292;2023-01-28T08:37:54;99642.69;;;2.08;100.00
50933;BME280;36921;49.006;9.292;2023-01-28T08:40:20;99611.84;;;1.94;100.00
50933;BME280;36921;49.006;9.292;2023-01-28T08:42:52;99570.69;;;1.76;100.00
50933;BME280;36921;49.006;9.292;2023-01-28T08:50:10;99625.97;;;2.27;100.00
50933;BME280;36921;49.006;9.292;2023-01-28T08:52:36;99630.81;;;2.33;100.00
50933;BME280;36921;49.006;9.292;2023-01-28T08:55:01;99629.69;;;2.36;100.00
50933;BME280;36921;49.006;9.292;2023-01-28T08:57:26;99622.72;;;2.45;100.00
50933;BME280;36921;49.006;9.292;2023-01-28T08:59:52;99623.56;;;2.45;100.00
50933;BME280;36921;49.006;9.292;2023-01-28T09:02:17;99635.63;;;2.39;100.00
50933;BME280;36921;49.006;9.292;2023-01-28T09:04:43;99639.28;;;2.38;100.00
50933;BME280;36921;49.006;9.292;2023-01-28T09:07:08;99646.66;;;2.56;100.00
50933;BME280;36921;49.006;9.292;2023-01-28T09:09:33;99643.44;;;2.52;100.00
50933;BME280;36921;49.006;9.292;2023-01-28T09:11:59;99645.50;;;2.49;100.00
50933;BME280;36921;49.006;9.292;2023-01-28T09:14:24;99652.81;;;2.47;100.00
50933;BME280;36921;49.006;9.292;2023-01-28T09:16:50;99645.03;;;2.44;100.00
50933;BME280;36921;49.006;9.292;2023-01-28T09:19:15;99647.97;;;2.40;100.00
50933;BME280;36921;49.006;9.292;2023-01-28T09:21:40;99654.03;;;2.42;100.00
50933;BME280;36921;49.006;9.292;2023-01-28T09:24:09;99658.66;;;2.40;100.00
50933;BME280;36921;49.006;9.292;2023-01-28T09:26:35;99662.91;;;2.43;100.00
50933;BME280;36921;49.006;9.292;2023-01-28T09:29:02;99667.72;;;2.49;100.00
50933;BME280;36921;49.006;9.292;2023-01-28T09:31:27;99659.13;;;2.46;100.00
50933;BME280;36921;49.006;9.292;2023-01-28T09:33:53;99668.22;;;2.43;100.00
50933;BME280;36921;49.006;9.292;2023-01-28T09:36:21;99666.88;;;2.49;100.00
50933;BME280;36921;49.006;9.292;2023-01-28T09:38:47;99671.50;;;2.47;100.00
50933;BME280;36921;49.006;9.292;2023-01-28T09:41:27;99678.34;;;2.39;100.00
50933;BME280;36921;49.006;9.292;2023-01-28T09:47:15;99679.25;;;2.29;100.00
50933;BME280;36921;49.006;9.292;2023-01-28T09:49:47;99682.03;;;2.27;100.00
50933;BME280;36921;49.006;9.292;2023-01-28T09:52:17;99682.22;;;2.35;100.00
50933;BME280;36921;49.006;9.292;2023-01-28T09:57:52;99681.84;;;2.19;100.00
50933;BME280;36921;49.006;9.292;2023-01-28T10:00:22;99688.38;;;2.26;100.00
50933;BME280;36921;49.006;9.292;2023-01-28T10:08:25;99685.78;;;2.36;100.00
50933;BME280;36921;49.006;9.292;2023-01-28T10:13:57;99675.94;;;2.57;100.00
50933;BME280;36921;49.006;9.292;2023-01-28T10:16:50;99670.41;;;2.70;100.00
50933;BME280;36921;49.006;9.292;2023-01-28T10:19:29;99667.28;;;2.65;100.00
50933;BME280;36921;49.006;9.292;2023-01-28T10:22:11;99669.47;;;2.81;100.00
50933;BME280;36921;49.006;9.292;2023-01-28T10:24:44;99674.38;;;2.85;100.00
50933;BME280;36921;49.006;9.292;2023-01-28T10:27:18;99662.91;;;2.95;100.00
50933;BME280;36921;49.006;9.292;2023-01-28T10:29:46;99665.75;;;2.72;100.00
50933;BME280;36921;49.006;9.292;2023-01-28T10:34:45;99663.34;;;2.69;100.00
50933;BME280;36921;49.006;9.292;2023-01-28T10:37:13;99661.38;;;2.71;100.00
50933;BME280;36921;49.006;9.292;2023-01-28T10:39:39;99657.50;;;2.75;100.00
50933;BME280;36921;49.006;9.292;2023-01-28T10:44:48;99665.25;;;2.88;100.00
50933;BME280;36921;49.006;9.292;2023-01-28T10:47:17;99661.31;;;2.82;100.00
50933;BME280;36921;49.006;9.292;2023-01-28T10:49:57;99659.72;;;2.70;100.00
50933;BME280;36921;49.006;9.292;2023-01-28T10:52:23;99660.16;;;2.75;100.00
50933;BME280;36921;49.006;9.292;2023-01-28T10:57:57;99668.66;;;2.59;100.00
50933;BME280;36921;49.006;9.292;2023-01-28T11:00:29;99671.44;;;2.58;100.00
50933;BME280;36921;49.006;9.292;2023-01-28T11:02:56;99679.75;;;2.44;100.00
50933;BME280;36921;49.006;9.292;2023-01-28T11:05:26;99677.16;;;2.32;100.00
50933;BME280;36921;49.006;9.292;2023-01-28T11:08:27;99678.13;;;2.10;100.00
50933;BME280;36921;49.006;9.292;2023-01-28T11:11:13;99669.38;;;2.08;100.00
50933;BME280;36921;49.006;9.292;2023-01-28T11:13:48;99673.16;;;2.06;100.00
50933;BME280;36921;49.006;9.292;2023-01-28T11:16:16;99652.47;;;2.19;100.00
50933;BME280;36921;49.006;9.292;2023-01-28T11:18:54;99670.63;;;2.25;100.00
50933;BME280;36921;49.006;9.292;2023-01-28T11:21:28;99663.53;;;2.14;100.00
50933;BME280;36921;49.006;9.292;2023-01-28T11:24:05;99682.09;;;2.16;100.00
50933;BME280;36921;49.006;9.292;2023-01-28T11:26:39;99683.72;;;2.07;100.00
50933;BME280;36921;49.006;9.292;2023-01-28T11:29:21;99662.53;;;1.94;100.00
50933;BME280;36921;49.006;9.292;2023-01-28T11:31:46;99678.03;;;2.01;100.00
50933;BME280;36921;49.006;9.292;2023-01-28T11:34:15;99682.25;;;2.03;100.00
50933;BME280;36921;49.006;9.292;2023-01-28T11:36:49;99687.50;;;2.05;100.00
50933;BME280;36921;49.006;9.292;2023-01-28T11:39:22;99675.88;;;1.94;100.00
50933;BME280;36921;49.006;9.292;2023-01-28T11:41:50;99674.06;;;1.95;100.00
50933;BME280;36921;49.006;9.292;2023-01-28T11:44:26;99692.81;;;2.05;100.00
50933;BME280;36921;49.006;9.292;2023-01-28T11:56:02;99693.19;;;2.00;100.00
50933;BME280;36921;49.006;9.292;2023-01-28T12:04:40;99686.34;;;1.75;100.00
50933;BME280;36921;49.006;9.292;2023-01-28T12:13:02;99702.28;;;1.54;100.00
50933;BME280;36921;49.006;9.292;2023-01-28T12:15:48;99695.75;;;1.47;100.00
50933;BME280;36921;49.006;9.292;2023-01-28T12:21:26;99694.91;;;1.35;100.00
50933;BME280;36921;49.006;9.292;2023-01-28T12:29:40;99696.25;;;1.29;100.00
50933;BME280;36921;49.006;9.292;2023-01-28T12:45:16;99670.94;;;1.13;100.00
50933;BME280;36921;49.006;9.292;2023-01-28T12:47:49;99661.13;;;1.02;100.00
50933;BME280;36921;49.006;9.292;2023-01-28T12:50:22;99658.47;;;1.02;100.00
50933;BME280;36921;49.006;9.292;2023-01-28T12:52:55;99655.44;;;1.06;100.00
50933;BME280;36921;49.006;9.292;2023-01-28T12:55:37;99676.41;;;1.11;100.00
50933;BME280;36921;49.006;9.292;2023-01-28T12:58:06;99653.13;;;1.02;100.00
50933;BME280;36921;49.006;9.292;2023-01-28T13:00:40;99651.19;;;1.04;100.00
50933;BME280;36921;49.006;9.292;2023-01-28T13:05:52;99666.34;;;1.26;100.00
50933;BME280;36921;49.006;9.292;2023-01-28T13:08:25;99666.69;;;1.33;100.00
50933;BME280;36921;49.006;9.292;2023-01-28T13:10:51;99668.47;;;1.43;100.00
50933;BME280;36921;49.006;9.292;2023-01-28T13:13:38;99676.72;;;1.40;100.00
50933;BME280;36921;49.006;9.292;2023-01-28T13:16:07;99659.91;;;1.40;100.00
50933;BME280;36921;49.006;9.292;2023-01-28T13:18:41;99674.53;;;1.45;100.00
50933;BME280;36921;49.006;9.292;2023-01-28T13:23:42;99662.41;;;1.52;100.00
50933;BME280;36921;49.006;9.292;2023-01-28T13:26:10;99675.72;;;1.64;100.00
50933;BME280;36921;49.006;9.292;2023-01-28T13:28:36;99660.22;;;1.46;100.00
50933;BME280;36921;49.006;9.292;2023-01-28T13:31:11;99670.38;;;1.64;100.00
50933;BME280;36921;49.006;9.292;2023-01-28T13:33:43;99666.63;;;1.66;100.00
50933;BME280;36921;49.006;9.292;2023-01-28T13:36:26;99685.16;;;1.79;100.00
50933;BME280;36921;49.006;9.292;2023-01-28T13:39:20;99674.31;;;1.81;100.00
50933;BME280;36921;49.006;9.292;2023-01-28T13:42:08;99678.97;;;1.67;100.00
50933;BME280;36921;49.006;9.292;2023-01-28T13:44:35;99670.63;;;1.61;100.00
50933;BME280;36921;49.006;9.292;2023-01-28T13:49:42;99678.72;;;1.82;100.00
50933;BME280;36921;49.006;9.292;2023-01-28T13:55:22;99688.66;;;1.80;100.00
50933;BME280;36921;49.006;9.292;2023-01-28T13:58:23;99682.84;;;1.74;100.00
50933;BME280;36921;49.006;9.292;2023-01-28T14:09:48;99699.06;;;1.83;100.00
50933;BME280;36921;49.006;9.292;2023-01-28T14:15:05;99680.75;;;1.89;100.00
50933;BME280;36921;49.006;9.292;2023-01-28T14:17:42;99692.84;;;1.93;100.00
50933;BME280;36921;49.006;9.292;2023-01-28T14:22:44;99689.78;;;1.66;100.00
50933;BME280;36921;49.006;9.292;2023-01-28T14:28:06;99702.13;;;1.67;100.00
50933;BME280;36921;49.006;9.292;2023-01-28T14:33:11;99699.00;;;1.62;100.00
50933;BME280;36921;49.006;9.292;2023-01-28T14:35:38;99719.94;;;1.78;100.00
50933;BME280;36921;49.006;9.292;2023-01-28T14:38:13;99703.13;;;1.66;100.00
50933;BME280;36921;49.006;9.292;2023-01-28T14:40:39;99719.69;;;1.81;100.00
50933;BME280;36921;49.006;9.292;2023-01-28T14:43:07;99723.22;;;1.81;100.00
50933;BME280;36921;49.006;9.292;2023-01-28T14:57:11;99729.03;;;1.86;100.00
50933;BME280;36921;49.006;9.292;2023-01-28T14:59:52;99719.31;;;1.85;100.00
50933;BME280;36921;49.006;9.292;2023-01-28T15:02:21;99714.97;;;1.84;100.00
50933;BME280;36921;49.006;9.292;2023-01-28T15:04:48;99737.47;;;2.03;100.00
50933;BME280;36921;49.006;9.292;2023-01-28T15:09:41;99729.03;;;1.75;100.00
50933;BME280;36921;49.006;9.292;2023-01-28T15:12:08;99733.53;;;1.74;100.00
50933;BME280;36921;49.006;9.292;2023-01-28T15:14:33;99736.44;;;1.71;100.00
50933;BME280;36921;49.006;9.292;2023-01-28T15:16:59;99742.28;;;1.54;100.00
50933;BME280;36921;49.006;9.292;2023-01-28T15:19:33;99741.81;;;1.60;100.00
50933;BME280;36921;49.006;9.292;2023-01-28T15:22:05;99751.13;;;1.54;100.00
50933;BME280;36921;49.006;9.292;2023-01-28T15:24:33;99747.25;;;1.36;100.00
50933;BME280;36921;49.006;9.292;2023-01-28T15:26:59;99738.06;;;1.29;100.00
50933;BME280;36921;49.006;9.292;2023-01-28T15:29:30;99762.56;;;1.34;100.00
50933;BME280;36921;49.006;9.292;2023-01-28T15:31:57;99732.97;;;1.03;100.00
50933;BME280;36921;49.006;9.292;2023-01-28T15:34:22;99742.53;;;1.17;100.00
50933;BME280;36921;49.006;9.292;2023-01-28T15:36:54;99739.63;;;1.09;100.00
50933;BME280;36921;49.006;9.292;2023-01-28T15:39:22;99754.53;;;1.12;100.00
50933;BME280;36921;49.006;9.292;2023-01-28T15:41:56;99751.50;;;1.05;100.00